Time;durP1;ratioP1;P1;durP2;ratioP2;P2;SDS_P1;SDS_P2;PMS_P1;PMS_P2;Temp;Humidity;BMP_temperature;BMP_pressure;BME280_temperature;BME280_humidity;BME280_pressure;Samples;Min_cycle;Max_cycle;Signal;HPM_P1;HPM_P2
2021/12/02 00:01:25;;;;;;;14.82;8.70;;;3.30;80.80;;;-151.14;100.00;62537.16;4008952;33;20359;-87
2021/12/02 00:03:53;;;;;;;14.60;8.45;;;3.30;80.80;;;-151.14;100.00;62537.16;4010164;33;20518;-86
2021/12/02 00:06:20;;;;;;;11.85;7.63;;;3.30;80.80;;;-151.14;100.00;62537.16;4014215;33;20282;-86
2021/12/02 00:08:48;;;;;;;13.60;8.27;;;3.30;80.80;;;-151.14;100.00;62537.16;3994472;33;20345;-86
2021/12/02 00:11:15;;;;;;;12.75;7.97;;;3.30;80.70;;;-151.14;100.00;62537.16;4001608;33;20321;-86
2021/12/02 00:21:29;;;;;;;12.50;7.70;;;3.30;80.80;;;-151.14;100.00;62537.16;4029828;33;20280;-87
2021/12/02 00:24:08;;;;;;;12.70;7.95;;;3.30;80.80;;;-151.14;100.00;62537.16;4027873;33;20130;-87
2021/12/02 00:26:39;;;;;;;11.57;7.57;;;3.30;80.90;;;-151.14;100.00;62537.16;4040561;33;20425;-85
2021/12/02 00:29:07;;;;;;;11.23;6.95;;;3.30;80.90;;;-151.14;100.00;62537.16;4014081;33;19996;-85
2021/12/02 00:31:37;;;;;;;12.55;8.27;;;3.30;80.90;;;-151.14;100.00;62537.16;4020351;33;20366;-86
2021/12/02 00:34:08;;;;;;;11.70;7.05;;;3.30;80.90;;;-151.14;100.00;62537.16;3995043;33;20355;-86
2021/12/02 00:36:37;;;;;;;11.57;7.20;;;3.30;80.90;;;-151.14;100.00;62537.16;4000279;33;20284;-86
2021/12/02 00:39:15;;;;;;;10.00;6.85;;;3.30;80.90;;;-151.14;100.00;62537.16;4016527;33;20002;-85
2021/12/02 00:41:42;;;;;;;12.52;7.55;;;3.30;81.00;;;-151.14;100.00;62537.16;4013232;33;20308;-85
2021/12/02 00:44:08;;;;;;;11.35;7.28;;;3.30;81.00;;;-151.14;100.00;62537.16;4000302;33;20291;-86
2021/12/02 00:46:35;;;;;;;12.13;7.60;;;3.30;81.00;;;-151.14;100.00;62537.16;4045184;33;20578;-86
2021/12/02 00:49:06;;;;;;;11.05;7.05;;;3.20;80.90;;;-151.14;100.00;62537.16;4002936;33;20653;-86
2021/12/02 00:51:34;;;;;;;10.73;6.97;;;3.30;81.00;;;-151.14;100.00;62537.16;4022899;33;20019;-86
2021/12/02 00:54:05;;;;;;;11.48;6.97;;;3.20;80.90;;;-151.14;100.00;62537.16;4053176;33;20237;-86
2021/12/02 00:56:32;;;;;;;10.20;6.53;;;3.20;80.90;;;-151.14;100.00;62537.16;4026852;33;20300;-86
2021/12/02 00:58:59;;;;;;;12.52;7.10;;;3.20;80.90;;;-151.14;100.00;62537.16;4032637;33;20298;-86
2021/12/02 01:01:27;;;;;;;11.02;6.45;;;3.30;81.00;;;-151.14;100.00;62537.16;4004859;33;20292;-86
2021/12/02 01:03:58;;;;;;;11.63;7.15;;;3.20;80.90;;;-151.14;100.00;62537.16;4008587;33;20276;-86
2021/12/02 01:06:25;;;;;;;12.38;6.90;;;3.30;81.10;;;-151.14;100.00;62537.16;4003011;33;20611;-85
2021/12/02 01:08:52;;;;;;;10.10;6.63;;;3.20;81.00;;;-151.14;100.00;62537.16;4027811;33;20251;-86
2021/12/02 01:11:19;;;;;;;9.98;6.53;;;3.20;81.00;;;-151.14;100.00;62537.16;4000816;33;20501;-85
2021/12/02 01:13:46;;;;;;;9.55;6.40;;;3.20;81.00;;;-151.14;100.00;62537.16;4057495;33;20313;-85
2021/12/02 01:16:13;;;;;;;10.93;6.45;;;3.20;80.90;;;-151.14;100.00;62537.16;4094611;33;20287;-89
2021/12/02 01:18:40;;;;;;;10.75;6.05;;;3.20;80.80;;;-151.14;100.00;62537.16;4040974;33;20279;-85
2021/12/02 01:21:06;;;;;;;10.00;6.97;;;3.20;80.90;;;-151.14;100.00;62537.16;4070521;33;20292;-86
2021/12/02 01:23:33;;;;;;;11.27;6.40;;;3.20;81.10;;;-151.14;100.00;62537.16;4021694;33;20002;-86
2021/12/02 01:26:04;;;;;;;10.88;6.55;;;3.20;81.00;;;-151.14;100.00;62537.16;4081837;33;20365;-86
2021/12/02 01:28:33;;;;;;;9.13;6.25;;;3.20;81.00;;;-151.14;100.00;62537.16;4005733;33;20295;-87
2021/12/02 01:30:59;;;;;;;10.38;6.45;;;3.20;80.90;;;-151.14;100.00;62537.16;3983488;33;20313;-86
2021/12/02 01:33:27;;;;;;;8.45;5.60;;;3.20;81.00;;;-151.14;100.00;62537.16;4030309;33;20318;-85
2021/12/02 01:36:02;;;;;;;9.23;5.68;;;3.20;80.90;;;-151.14;100.00;62537.16;4003946;33;20311;-86
2021/12/02 01:38:29;;;;;;;10.25;6.57;;;3.20;81.00;;;-151.14;100.00;62537.16;4031233;33;20028;-86
2021/12/02 01:40:58;;;;;;;12.65;6.97;;;3.20;81.00;;;-151.14;100.00;62537.16;4033614;33;20337;-85
2021/12/02 01:43:53;;;;;;;10.45;6.35;;;3.20;81.10;;;-151.14;100.00;62537.16;4033009;33;20003;-85
2021/12/02 01:46:23;;;;;;;10.45;6.18;;;3.20;81.10;;;-151.14;100.00;62537.16;4033129;33;20271;-86
2021/12/02 01:49:05;;;;;;;11.70;6.68;;;3.20;81.10;;;-151.14;100.00;62537.16;4029759;33;20321;-85
2021/12/02 01:51:47;;;;;;;11.23;7.22;;;3.20;81.20;;;-151.14;100.00;62537.16;4050756;33;20289;-85
2021/12/02 01:54:24;;;;;;;11.60;6.45;;;3.20;81.10;;;-151.14;100.00;62537.16;4013987;33;20278;-85
2021/12/02 01:57:05;;;;;;;8.90;5.38;;;3.20;81.10;;;-151.14;100.00;62537.16;4028978;33;20006;-85
2021/12/02 01:59:36;;;;;;;11.13;6.35;;;3.20;81.00;;;-151.14;100.00;62537.16;4023580;33;20370;-85
2021/12/02 02:02:10;;;;;;;10.63;6.50;;;3.20;81.00;;;-151.14;100.00;62537.16;4039014;33;20355;-85
2021/12/02 02:04:37;;;;;;;11.27;6.38;;;3.20;81.00;;;-151.14;100.00;62537.16;4040330;33;20026;-85
2021/12/02 02:07:11;;;;;;;14.80;7.00;;;3.20;81.00;;;-151.14;100.00;62537.16;4046444;33;19986;-85
2021/12/02 02:09:38;;;;;;;10.73;6.35;;;3.20;81.00;;;-151.14;100.00;62537.16;4030580;33;20283;-85
2021/12/02 02:12:10;;;;;;;9.35;6.40;;;3.20;81.00;;;-151.14;100.00;62537.16;4051582;33;20109;-85
2021/12/02 02:14:37;;;;;;;9.60;6.13;;;3.20;81.20;;;-151.14;100.00;62537.16;4018587;33;20304;-85
2021/12/02 02:17:12;;;;;;;10.63;5.85;;;3.20;81.20;;;-151.14;100.00;62537.16;4053283;33;19990;-85
2021/12/02 02:19:39;;;;;;;10.90;6.22;;;3.20;82.10;;;-151.14;100.00;62537.16;4035708;33;20021;-85
2021/12/02 02:22:05;;;;;;;9.48;5.68;;;3.20;81.30;;;-151.14;100.00;62537.16;4017943;33;20538;-84
2021/12/02 02:24:32;;;;;;;10.35;6.03;;;3.20;81.10;;;-151.14;100.00;62537.16;4040824;33;19999;-85
2021/12/02 02:26:58;;;;;;;10.68;6.20;;;3.20;81.20;;;-151.14;100.00;62537.16;4002806;34;20501;-85
2021/12/02 02:29:24;;;;;;;10.55;5.63;;;3.20;81.20;;;-151.14;100.00;62537.16;3994432;34;20502;-85
2021/12/02 02:31:51;;;;;;;8.57;5.53;;;3.20;81.10;;;-151.14;100.00;62537.16;3992121;34;20338;-84
2021/12/02 02:34:22;;;;;;;9.07;6.10;;;3.20;81.30;;;-151.14;100.00;62537.16;4008602;34;20015;-85
2021/12/02 02:36:52;;;;;;;8.95;5.40;;;3.20;81.20;;;-151.14;100.00;62537.16;3983374;34;20091;-85
2021/12/02 02:39:19;;;;;;;10.30;6.18;;;3.20;81.30;;;-151.14;100.00;62537.16;4008610;34;20286;-84
2021/12/02 02:41:46;;;;;;;10.82;6.40;;;3.20;81.20;;;-151.14;100.00;62537.16;3983980;34;20003;-84
2021/12/02 02:44:13;;;;;;;12.70;6.70;;;3.20;81.20;;;-151.14;100.00;62537.16;3982452;34;20283;-85
2021/12/02 02:46:41;;;;;;;10.98;5.68;;;3.20;81.30;;;-151.14;100.00;62537.16;4007466;34;20266;-85
2021/12/02 02:49:11;;;;;;;10.50;6.45;;;3.20;81.30;;;-151.14;100.00;62537.16;4040308;34;20388;-84
2021/12/02 02:51:38;;;;;;;9.25;5.30;;;3.20;81.20;;;-151.14;100.00;62537.16;4038485;34;20283;-85
2021/12/02 02:54:07;;;;;;;10.07;5.50;;;3.20;81.20;;;-151.14;100.00;62537.16;3992614;33;20590;-85
2021/12/02 02:56:39;;;;;;;11.35;5.55;;;3.20;81.30;;;-151.14;100.00;62537.16;4093594;33;20280;-85
2021/12/02 02:59:13;;;;;;;9.13;5.70;;;3.20;81.20;;;-151.14;100.00;62537.16;4056350;33;20277;-86
2021/12/02 03:17:09;;;;;;;10.73;5.93;;;3.20;81.20;;;-151.14;100.00;62537.16;4011688;34;20313;-85
2021/12/02 03:19:44;;;;;;;11.13;5.78;;;3.20;81.30;;;-151.14;100.00;62537.16;3987702;34;19991;-85
2021/12/02 03:22:12;;;;;;;10.27;5.70;;;3.20;81.30;;;-151.14;100.00;62537.16;4047544;34;19988;-85
2021/12/02 03:24:39;;;;;;;9.70;6.00;;;3.20;81.30;;;-151.14;100.00;62537.16;4004669;34;20290;-85
2021/12/02 03:27:06;;;;;;;11.02;6.25;;;3.20;81.30;;;-151.14;100.00;62537.16;3978631;34;20556;-85
2021/12/02 03:29:32;;;;;;;9.93;5.72;;;3.20;81.30;;;-151.14;100.00;62537.16;3979402;34;20296;-85
2021/12/02 03:31:59;;;;;;;13.88;6.53;;;3.20;81.40;;;-151.14;100.00;62537.16;3992236;34;20651;-84
2021/12/02 03:34:25;;;;;;;11.75;6.28;;;3.20;81.20;;;-151.14;100.00;62537.16;3972496;34;20469;-84
2021/12/02 03:36:52;;;;;;;12.25;6.63;;;3.20;81.40;;;-151.14;100.00;62537.16;3990090;34;20385;-85
2021/12/02 03:39:19;;;;;;;11.30;6.55;;;3.20;81.30;;;-151.14;100.00;62537.16;3990207;34;20302;-85
2021/12/02 03:41:45;;;;;;;12.27;6.78;;;3.20;81.40;;;-151.14;100.00;62537.16;4024199;34;20299;-85
2021/12/02 03:44:12;;;;;;;10.77;6.28;;;3.20;81.30;;;-151.14;100.00;62537.16;3997106;34;20398;-85
2021/12/02 03:46:39;;;;;;;10.52;6.00;;;3.20;81.40;;;-151.14;100.00;62537.16;4026947;33;19994;-85
2021/12/02 03:49:06;;;;;;;11.70;7.30;;;3.20;81.60;;;-151.14;100.00;62537.16;4025615;33;20348;-84
2021/12/02 03:51:32;;;;;;;11.35;6.50;;;3.10;81.50;;;-151.14;100.00;62537.16;4037798;33;19990;-85
2021/12/02 03:53:59;;;;;;;14.10;7.07;;;3.10;81.40;;;-151.14;100.00;62537.16;4056206;33;20263;-85
2021/12/02 03:56:26;;;;;;;11.77;6.60;;;3.10;81.60;;;-151.14;100.00;62537.16;4033371;33;20309;-85
2021/12/02 03:58:53;;;;;;;12.95;6.97;;;3.10;81.50;;;-151.14;100.00;62537.16;4016957;33;20292;-85
2021/12/02 04:01:21;;;;;;;11.97;7.30;;;3.20;81.40;;;-151.14;100.00;62537.16;3998110;33;20320;-85
2021/12/02 04:03:47;;;;;;;10.65;6.40;;;3.10;81.20;;;-151.14;100.00;62537.16;3999454;33;20273;-85
2021/12/02 04:06:14;;;;;;;13.85;7.43;;;3.10;81.20;;;-151.14;100.00;62537.16;4003229;33;20010;-85
2021/12/02 04:08:57;;;;;;;12.60;6.68;;;3.10;81.30;;;-151.14;100.00;62537.16;4009995;33;20223;-85
2021/12/02 04:14:10;;;;;;;12.68;6.40;;;3.10;81.40;;;-151.14;100.00;62537.16;4034132;33;19995;-84
2021/12/02 04:16:38;;;;;;;12.90;7.03;;;3.10;81.50;;;-151.14;100.00;62537.16;4015539;33;20297;-84
2021/12/02 04:19:07;;;;;;;13.45;6.80;;;3.10;81.30;;;-151.14;100.00;62537.16;4005184;33;20118;-85
2021/12/02 04:21:33;;;;;;;14.90;7.50;;;3.10;81.40;;;-151.14;100.00;62537.16;3965196;33;20307;-86
2021/12/02 04:24:00;;;;;;;15.65;8.48;;;3.10;81.40;;;-151.14;100.00;62537.16;3998096;33;19995;-83
2021/12/02 04:26:27;;;;;;;15.82;7.85;;;3.10;81.60;;;-151.14;100.00;62537.16;3986347;33;20370;-84
2021/12/02 04:28:53;;;;;;;15.27;7.80;;;3.10;81.50;;;-151.14;100.00;62537.16;4001140;33;20241;-85
2021/12/02 04:31:20;;;;;;;14.93;7.43;;;3.10;81.40;;;-151.14;100.00;62537.16;4039014;33;20369;-85
2021/12/02 04:33:46;;;;;;;14.10;8.00;;;3.10;81.60;;;-151.14;100.00;62537.16;4023362;33;20283;-85
2021/12/02 04:36:12;;;;;;;13.70;7.80;;;3.10;81.50;;;-151.14;100.00;62537.16;3996447;33;20074;-84
2021/12/02 04:38:39;;;;;;;17.63;8.55;;;3.10;81.50;;;-151.14;100.00;62537.16;3992572;33;20272;-85
2021/12/02 04:41:05;;;;;;;13.13;7.10;;;3.10;81.60;;;-151.14;100.00;62537.16;4022308;33;20626;-86
2021/12/02 04:43:32;;;;;;;13.95;8.20;;;3.10;82.50;;;-151.14;100.00;62537.16;3973847;33;20266;-84
2021/12/02 04:45:58;;;;;;;15.15;8.48;;;3.10;81.50;;;-151.14;100.00;62537.16;3991913;33;20627;-85
2021/12/02 04:48:25;;;;;;;14.82;8.23;;;3.10;81.60;;;-151.14;100.00;62537.16;3989178;33;20257;-85
2021/12/02 04:50:51;;;;;;;13.15;7.72;;;3.10;81.60;;;-151.14;100.00;62537.16;4001714;33;20311;-84
2021/12/02 04:53:19;;;;;;;14.43;8.38;;;3.10;81.60;;;-151.14;100.00;62537.16;4037950;33;20130;-85
2021/12/02 04:55:45;;;;;;;14.00;7.85;;;3.10;81.60;;;-151.14;100.00;62537.16;4040980;33;20401;-85
2021/12/02 04:58:12;;;;;;;13.68;7.43;;;3.10;81.50;;;-151.14;100.00;62537.16;4041745;33;20309;-85
2021/12/02 05:00:38;;;;;;;14.20;8.07;;;3.10;81.50;;;-151.14;100.00;62537.16;4048060;33;20270;-84
2021/12/02 05:03:04;;;;;;;14.55;8.30;;;3.10;81.50;;;-151.14;100.00;62537.16;4062987;33;20327;-86
2021/12/02 05:05:33;;;;;;;14.32;7.97;;;3.10;81.60;;;-151.14;100.00;62537.16;4048514;33;20237;-85
2021/12/02 05:08:01;;;;;;;14.30;8.20;;;3.10;81.60;;;-151.14;100.00;62537.16;4000735;33;20273;-85
2021/12/02 05:10:27;;;;;;;12.60;7.82;;;3.10;81.60;;;-151.14;100.00;62537.16;4045632;33;19987;-86
2021/12/02 05:12:54;;;;;;;15.20;8.40;;;3.10;81.50;;;-151.14;100.00;62537.16;4051408;33;20337;-84
2021/12/02 05:15:20;;;;;;;19.55;8.65;;;3.10;81.60;;;-151.14;100.00;62537.16;4048165;33;19995;-85
2021/12/02 05:17:47;;;;;;;13.25;7.93;;;3.10;81.50;;;-151.14;100.00;62537.16;4062701;33;19998;-85
2021/12/02 05:20:14;;;;;;;17.25;9.57;;;3.10;81.60;;;-151.14;100.00;62537.16;4024218;33;20726;-87
2021/12/02 05:22:41;;;;;;;16.58;8.77;;;3.10;81.60;;;-151.14;100.00;62537.16;4089267;33;20343;-84
2021/12/02 05:25:08;;;;;;;14.57;9.00;;;3.10;81.70;;;-151.14;100.00;62537.16;4059897;33;20284;-85
2021/12/02 05:27:35;;;;;;;16.92;9.27;;;3.10;81.60;;;-151.14;100.00;62537.16;4015466;33;20312;-84
2021/12/02 05:30:01;;;;;;;18.25;9.90;;;3.10;81.60;;;-151.14;100.00;62537.16;4021147;33;20349;-84
2021/12/02 05:32:30;;;;;;;16.63;9.30;;;3.10;81.60;;;-151.14;100.00;62537.16;4049870;33;20309;-85
2021/12/02 05:34:58;;;;;;;18.50;9.75;;;3.10;81.60;;;-151.14;100.00;62537.16;4087475;33;20010;-84
2021/12/02 05:37:25;;;;;;;18.67;10.45;;;3.10;81.70;;;-151.14;100.00;62537.16;4071997;33;20328;-85
2021/12/02 05:39:51;;;;;;;23.98;13.32;;;3.10;81.50;;;-151.14;100.00;62537.16;4048761;33;20264;-85
2021/12/02 05:42:18;;;;;;;18.55;10.90;;;3.10;81.60;;;-151.14;100.00;62537.16;4008064;33;20591;-84
2021/12/02 05:44:45;;;;;;;22.10;12.07;;;3.10;81.50;;;-151.14;100.00;62537.16;4051040;33;20221;-84
2021/12/02 05:47:12;;;;;;;23.65;13.25;;;3.10;81.60;;;-151.14;100.00;62537.16;4042769;33;20285;-84
2021/12/02 05:49:39;;;;;;;26.30;13.68;;;3.10;81.60;;;-151.14;100.00;62537.16;4026572;33;20322;-84
2021/12/02 05:52:06;;;;;;;22.60;14.30;;;3.10;81.60;;;-151.14;100.00;62537.16;4040426;33;20292;-85
2021/12/02 05:54:33;;;;;;;26.02;13.57;;;3.10;81.50;;;-151.14;100.00;62537.16;3983714;34;19995;-85
2021/12/02 05:56:59;;;;;;;24.65;13.90;;;3.10;81.40;;;-151.14;100.00;62537.16;4027280;34;20613;-85
2021/12/02 05:59:25;;;;;;;25.73;13.10;;;3.10;81.50;;;-151.14;100.00;62537.16;3980803;34;20636;-84
2021/12/02 06:01:52;;;;;;;23.85;14.05;;;3.10;81.50;;;-151.14;100.00;62537.16;4031005;34;20280;-85
2021/12/02 06:04:19;;;;;;;24.90;14.73;;;3.10;81.40;;;-151.14;100.00;62537.16;4096124;33;20313;-85
2021/12/02 06:06:45;;;;;;;25.52;15.50;;;3.10;81.60;;;-151.14;100.00;62537.16;4035595;33;20277;-85
2021/12/02 06:09:12;;;;;;;23.25;15.00;;;3.10;81.60;;;-151.14;100.00;62537.16;4059832;33;20264;-85
2021/12/02 06:11:38;;;;;;;28.52;15.90;;;3.10;81.60;;;-151.14;100.00;62537.16;4030388;33;20300;-85
2021/12/02 06:14:05;;;;;;;26.90;15.35;;;3.10;81.60;;;-151.14;100.00;62537.16;4034652;33;20384;-85
2021/12/02 06:16:31;;;;;;;24.27;14.32;;;3.10;81.60;;;-151.14;100.00;62537.16;4035841;33;20270;-85
2021/12/02 06:18:57;;;;;;;26.73;16.50;;;3.10;81.60;;;-151.14;100.00;62537.16;4038671;33;20003;-85
2021/12/02 06:21:24;;;;;;;27.13;14.98;;;3.10;81.50;;;-151.14;100.00;62537.16;4023480;33;20543;-85
2021/12/02 06:23:50;;;;;;;26.95;15.27;;;3.10;81.40;;;-151.14;100.00;62537.16;4043742;33;20003;-84
2021/12/02 06:26:17;;;;;;;31.48;16.75;;;3.10;81.50;;;-151.14;100.00;62537.16;4048760;34;20306;-85
2021/12/02 06:28:43;;;;;;;28.70;16.65;;;3.10;81.40;;;-151.14;100.00;62537.16;4026063;34;20347;-85
2021/12/02 06:31:09;;;;;;;29.80;17.15;;;3.10;81.50;;;-151.14;100.00;62537.16;4011439;34;20022;-85
2021/12/02 06:33:36;;;;;;;29.90;16.90;;;3.10;81.60;;;-151.14;100.00;62537.16;4031021;34;20304;-85
2021/12/02 06:36:02;;;;;;;26.42;16.67;;;3.10;81.60;;;-151.14;100.00;62537.16;3980394;34;20376;-86
2021/12/02 06:38:28;;;;;;;31.27;16.20;;;3.20;81.40;;;-151.14;100.00;62537.16;3979358;34;20609;-85
2021/12/02 06:40:55;;;;;;;28.20;16.25;;;3.10;81.40;;;-151.14;100.00;62537.16;3990909;34;20640;-85
2021/12/02 06:43:21;;;;;;;32.22;18.35;;;3.10;81.40;;;-151.14;100.00;62537.16;3986716;34;20067;-85
2021/12/02 06:45:48;;;;;;;30.77;17.77;;;3.20;81.30;;;-151.14;100.00;62537.16;3988892;34;20400;-85
2021/12/02 06:48:14;;;;;;;32.17;18.92;;;3.20;81.30;;;-151.14;100.00;62537.16;4008231;34;20297;-85
2021/12/02 06:50:42;;;;;;;29.13;18.15;;;3.20;81.20;;;-151.14;100.00;62537.16;3949124;34;20320;-86
2021/12/02 06:53:09;;;;;;;33.45;18.63;;;3.20;81.20;;;-151.14;100.00;62537.16;3993874;34;20035;-84
2021/12/02 06:55:35;;;;;;;32.78;18.02;;;3.20;81.20;;;-151.14;100.00;62537.16;4009512;34;20366;-85
2021/12/02 06:58:01;;;;;;;32.25;19.52;;;3.30;81.10;;;-151.14;100.00;62537.16;3982659;34;20273;-85
2021/12/02 07:00:28;;;;;;;32.85;19.80;;;3.30;81.10;;;-151.14;100.00;62537.16;3969375;34;20288;-85
2021/12/02 07:02:55;;;;;;;39.58;21.67;;;3.30;80.90;;;-151.14;100.00;62537.16;3943458;34;20365;-84
2021/12/02 07:05:22;;;;;;;35.85;21.83;;;3.30;80.60;;;-151.14;100.00;62537.16;3970286;34;20314;-84
2021/12/02 07:07:48;;;;;;;33.83;20.77;;;3.40;80.60;;;-151.14;100.00;62537.16;3991012;34;20299;-85
2021/12/02 07:10:19;;;;;;;34.67;21.05;;;3.40;80.30;;;-151.14;100.00;62537.16;3952324;34;20008;-84
2021/12/02 07:12:49;;;;;;;31.15;19.13;;;3.50;80.30;;;-151.14;100.00;62537.16;3989590;34;20278;-84
2021/12/02 07:15:21;;;;;;;35.47;20.23;;;3.50;80.30;;;-151.14;100.00;62537.16;3972179;34;20008;-84
2021/12/02 07:17:59;;;;;;;37.17;22.30;;;3.50;80.10;;;-151.14;100.00;62537.16;3925009;34;20256;-84
2021/12/02 07:20:29;;;;;;;32.92;20.20;;;3.60;79.90;;;-151.14;100.00;62537.16;3980866;34;20268;-84
2021/12/02 07:22:58;;;;;;;36.33;22.83;;;3.60;79.70;;;-151.14;100.00;62537.16;3966307;34;20546;-84
2021/12/02 07:25:24;;;;;;;39.58;23.70;;;3.60;79.90;;;-151.14;100.00;62537.16;3947987;33;20303;-84
2021/12/02 07:27:50;;;;;;;37.20;22.30;;;3.60;79.60;;;-151.14;100.00;62537.16;3986825;33;20344;-84
2021/12/02 07:30:17;;;;;;;37.80;22.15;;;3.50;79.80;;;-151.14;100.00;62537.16;4009526;33;20285;-84
2021/12/02 07:32:52;;;;;;;39.58;23.73;;;3.60;79.90;;;-151.14;100.00;62537.16;3970138;33;20298;-84
2021/12/02 07:35:19;;;;;;;37.65;21.83;;;3.60;79.80;;;-151.14;100.00;62537.16;3974008;33;20045;-86
2021/12/02 07:37:48;;;;;;;35.85;22.50;;;3.60;79.80;;;-151.14;100.00;62537.16;3996348;33;19987;-84
2021/12/02 07:40:17;;;;;;;36.75;22.58;;;3.60;80.00;;;-151.14;100.00;62537.16;4016330;33;20244;-85
2021/12/02 07:42:48;;;;;;;34.30;21.83;;;3.50;79.90;;;-151.14;100.00;62537.16;3971079;33;20294;-85
2021/12/02 07:45:15;;;;;;;37.43;21.93;;;3.60;79.90;;;-151.14;100.00;62537.16;3995325;33;19991;-85
2021/12/02 07:47:42;;;;;;;35.95;21.38;;;3.70;79.90;;;-151.14;100.00;62537.16;4017405;33;20003;-85
2021/12/02 07:50:12;;;;;;;31.90;21.33;;;3.70;79.60;;;-151.14;100.00;62537.16;4003442;33;20351;-85
2021/12/02 07:52:58;;;;;;;37.80;21.38;;;3.70;79.50;;;-151.14;100.00;62537.16;3982265;33;20313;-85
2021/12/02 07:55:25;;;;;;;34.33;21.83;;;3.70;79.40;;;-151.14;100.00;62537.16;4006915;33;20381;-84
2021/12/02 07:57:52;;;;;;;34.25;21.05;;;3.70;79.50;;;-151.14;100.00;62537.16;4046581;33;20282;-84
2021/12/02 08:00:22;;;;;;;35.78;21.77;;;3.70;79.40;;;-151.14;100.00;62537.16;4046936;33;20299;-83
2021/12/02 08:02:51;;;;;;;34.05;21.70;;;3.70;79.50;;;-151.14;100.00;62537.16;4046530;33;20260;-84
2021/12/02 08:05:18;;;;;;;34.28;21.67;;;3.70;79.50;;;-151.14;100.00;62537.16;4001106;34;20355;-84
2021/12/02 08:07:44;;;;;;;35.67;23.20;;;3.80;79.60;;;-151.14;100.00;62537.16;3991502;34;20314;-84
2021/12/02 08:10:13;;;;;;;35.40;21.15;;;3.80;79.40;;;-151.14;100.00;62537.16;4013318;34;19998;-85
2021/12/02 08:12:45;;;;;;;36.42;21.52;;;3.80;79.70;;;-151.14;100.00;62537.16;3970470;34;19992;-84
2021/12/02 08:15:12;;;;;;;33.42;20.60;;;3.80;79.60;;;-151.14;100.00;62537.16;4003270;34;20338;-84
2021/12/02 08:17:38;;;;;;;30.10;19.70;;;3.80;79.50;;;-151.14;100.00;62537.16;4000824;34;19996;-84
2021/12/02 08:20:06;;;;;;;31.50;21.13;;;3.80;79.60;;;-151.14;100.00;62537.16;4001952;34;20179;-84
2021/12/02 08:22:32;;;;;;;32.00;21.38;;;3.80;79.60;;;-151.14;100.00;62537.16;3999427;34;20337;-85
2021/12/02 08:24:59;;;;;;;34.22;21.77;;;3.80;79.70;;;-151.14;100.00;62537.16;3999433;34;19980;-85
2021/12/02 08:27:26;;;;;;;33.20;20.98;;;3.80;79.80;;;-151.14;100.00;62537.16;3999903;34;20574;-85
2021/12/02 08:29:52;;;;;;;34.33;20.67;;;3.80;79.80;;;-151.14;100.00;62537.16;3995846;33;20258;-85
2021/12/02 08:32:18;;;;;;;29.35;19.50;;;3.70;79.80;;;-151.14;100.00;62537.16;4047818;33;20298;-85
2021/12/02 08:34:45;;;;;;;35.67;20.27;;;3.80;79.80;;;-151.14;100.00;62537.16;4029223;33;20139;-85
2021/12/02 08:37:12;;;;;;;30.48;19.67;;;3.80;79.90;;;-151.14;100.00;62537.16;4050255;33;20358;-85
2021/12/02 08:39:41;;;;;;;31.55;20.08;;;3.80;79.80;;;-151.14;100.00;62537.16;4031222;33;20254;-85
2021/12/02 08:42:09;;;;;;;29.80;20.10;;;3.80;79.80;;;-151.14;100.00;62537.16;4045532;33;20371;-86
2021/12/02 08:44:39;;;;;;;32.15;19.67;;;3.80;79.90;;;-151.14;100.00;62537.16;4002776;33;20505;-86
2021/12/02 08:47:08;;;;;;;28.25;18.95;;;3.80;80.50;;;-151.14;100.00;62537.16;4005810;33;20363;-86
2021/12/02 08:49:34;;;;;;;29.00;19.25;;;3.70;79.80;;;-151.14;100.00;62537.16;4039872;33;20309;-86
2021/12/02 08:52:00;;;;;;;30.10;19.55;;;3.80;79.80;;;-151.14;100.00;62537.16;4026834;33;20327;-86
2021/12/02 08:54:27;;;;;;;27.00;17.35;;;3.80;79.90;;;-151.14;100.00;62537.16;4056923;33;19990;-86
2021/12/02 08:56:55;;;;;;;29.70;18.33;;;3.80;79.80;;;-151.14;100.00;62537.16;4017315;34;20660;-86
2021/12/02 08:59:21;;;;;;;26.88;17.38;;;3.80;79.70;;;-151.14;100.00;62537.16;3999697;34;20343;-86
2021/12/02 09:01:47;;;;;;;25.85;16.55;;;3.80;79.60;;;-151.14;100.00;62537.16;3993736;33;20608;-86
2021/12/02 09:04:14;;;;;;;23.15;16.25;;;3.90;79.70;;;-151.14;100.00;62537.16;4028378;33;20361;-86
2021/12/02 09:06:40;;;;;;;24.67;16.60;;;3.90;79.70;;;-151.14;100.00;62537.16;4045320;33;20321;-85
2021/12/02 09:09:06;;;;;;;24.48;15.43;;;3.90;79.70;;;-151.14;100.00;62537.16;4043932;33;20305;-85
2021/12/02 09:11:33;;;;;;;23.92;15.77;;;4.00;79.60;;;-151.14;100.00;62537.16;4027111;33;20077;-85
2021/12/02 09:14:04;;;;;;;25.67;15.93;;;4.00;79.50;;;-151.14;100.00;62537.16;4027604;33;19994;-85
2021/12/02 09:16:31;;;;;;;26.77;16.45;;;4.00;79.60;;;-151.14;100.00;62537.16;4004433;33;19998;-85
2021/12/02 09:18:58;;;;;;;23.55;15.75;;;4.00;79.50;;;-151.14;100.00;62537.16;4001475;33;20244;-85
2021/12/02 09:21:24;;;;;;;25.58;14.40;;;4.00;79.40;;;-151.14;100.00;62537.16;4046694;33;20273;-86
2021/12/02 09:23:51;;;;;;;19.75;13.63;;;4.00;79.30;;;-151.14;100.00;62537.16;3998221;33;20403;-87
2021/12/02 09:26:17;;;;;;;18.48;13.20;;;4.00;79.30;;;-151.14;100.00;62537.16;4022188;33;20499;-86
2021/12/02 09:28:51;;;;;;;19.77;12.88;;;4.00;79.20;;;-151.14;100.00;62537.16;3991939;33;20214;-86
2021/12/02 09:31:21;;;;;;;19.73;13.25;;;4.00;79.20;;;-151.14;100.00;62537.16;3989046;33;20285;-86
2021/12/02 09:33:50;;;;;;;22.75;14.45;;;4.00;79.30;;;-151.14;100.00;62537.16;3991636;33;20619;-86
2021/12/02 09:36:17;;;;;;;19.40;13.40;;;4.00;79.40;;;-151.14;100.00;62537.16;3991973;33;20315;-87
2021/12/02 09:38:45;;;;;;;20.63;13.13;;;4.00;79.30;;;-151.14;100.00;62537.16;3966625;33;20743;-86
2021/12/02 09:41:14;;;;;;;17.85;12.32;;;4.00;79.40;;;-151.14;100.00;62537.16;3970280;33;20233;-84
2021/12/02 09:43:41;;;;;;;20.05;12.82;;;4.00;79.40;;;-151.14;100.00;62537.16;3968978;33;20565;-85
2021/12/02 09:46:10;;;;;;;18.75;13.00;;;4.00;79.40;;;-151.14;100.00;62537.16;3944606;33;20328;-85
2021/12/02 09:48:38;;;;;;;19.83;12.35;;;4.00;79.50;;;-151.14;100.00;62537.16;3966258;33;20264;-84
2021/12/02 09:51:13;;;;;;;21.85;13.43;;;4.00;79.50;;;-151.14;100.00;62537.16;3991446;33;20677;-86
2021/12/02 09:54:06;;;;;;;18.05;12.30;;;4.00;79.50;;;-151.14;100.00;62537.16;3963610;34;20285;-85
2021/12/02 09:56:30;;;;;;;;;;;3.90;79.60;;;-151.14;100.00;62537.16;3951112;34;20613;-86
2021/12/02 09:59:03;;;;;;;18.90;11.82;;;3.90;79.60;;;-151.14;100.00;62537.16;3984223;34;19909;-86
2021/12/02 10:01:44;;;;;;;17.58;12.02;;;3.90;79.70;;;-151.14;100.00;62537.16;3968853;34;19991;-86
2021/12/02 10:04:12;;;;;;;19.13;12.25;;;3.90;79.70;;;-151.14;100.00;62537.16;3967780;34;20283;-86
2021/12/02 10:06:41;;;;;;;18.17;11.65;;;3.90;79.70;;;-151.14;100.00;62537.16;3943730;33;20297;-86
2021/12/02 10:09:15;;;;;;;18.88;12.00;;;3.90;79.70;;;-151.14;100.00;62537.16;4012286;33;20446;-86
2021/12/02 10:14:38;;;;;;;18.60;11.95;;;3.90;79.70;;;-151.14;100.00;62537.16;3989384;33;20264;-86
2021/12/02 10:17:37;;;;;;;17.38;10.95;;;3.90;79.70;;;-151.14;100.00;62537.16;4044301;33;20273;-85
2021/12/02 10:20:21;;;;;;;16.58;10.63;;;3.90;79.80;;;-151.14;100.00;62537.16;4008238;33;20274;-85
2021/12/02 10:23:19;;;;;;;18.02;10.65;;;3.90;79.80;;;-151.14;100.00;62537.16;4040608;33;20040;-86
2021/12/02 10:25:58;;;;;;;15.20;10.20;;;3.90;79.90;;;-151.14;100.00;62537.16;4036019;33;20614;-86
2021/12/02 10:28:28;;;;;;;15.98;10.10;;;3.80;79.80;;;-151.14;100.00;62537.16;3991864;33;20356;-86
2021/12/02 10:31:01;;;;;;;16.58;10.18;;;3.90;79.90;;;-151.14;100.00;62537.16;3994337;33;20009;-85
2021/12/02 10:33:51;;;;;;;16.63;10.50;;;3.90;80.00;;;-151.14;100.00;62537.16;3990561;33;20399;-86